Swan Creek, Illinois
Current Conditions -  °F | °C
As of 6:55 PM on Saturday 25 Oct 2014 (Local Time) from KMQB Reporting Station
Clear Clear  
Wind Chill: 55°   Ceiling: Unl
Heat Index: 55°   Visibility: 10mi
Dew Point: 42°   Wind: 5mph
Humidity: 63%   Direction: 310°NW
Pressure: 30.04"   Gusts: NA
Location:  40.7092°N, 90.6155°W
Report Text: KMQB 252355Z AUTO 31004KT 10SM CLR 13/06 A3004 RMK AO2 T01280058 10240 20125
Loading
Personal Weather Stations






























Interactive Weather Map
Tropical Storm Tracking
New forecast layout! Learn more

10-Day Weather Forecast

Advertisements
Track Severe Weather on mobile